sensor_id;sensor_type;location;lat;lon;timestamp;pressure;altitude;pressure_sealevel;temperature;humidity
7824;BME280;3957;48.61947800;9.05303100;2022-08-25T00:00:50;96236.09;;;15.78;100.00
7824;BME280;3957;48.61947800;9.05303100;2022-08-25T00:02:11;96230.13;;;15.76;100.00
7824;BME280;3957;48.61947800;9.05303100;2022-08-25T00:03:32;96218.97;;;15.72;100.00
7824;BME280;3957;48.61947800;9.05303100;2022-08-25T00:04:53;96221.91;;;15.71;100.00
7824;BME280;3957;48.61947800;9.05303100;2022-08-25T00:06:15;96222.94;;;15.70;100.00
7824;BME280;3957;48.61947800;9.05303100;2022-08-25T00:07:35;96218.59;;;15.69;100.00
7824;BME280;3957;48.61947800;9.05303100;2022-08-25T00:08:56;96216.97;;;15.68;100.00
7824;BME280;3957;48.61947800;9.05303100;2022-08-25T00:10:19;96215.91;;;15.69;100.00
7824;BME280;3957;48.61947800;9.05303100;2022-08-25T00:11:40;96217.78;;;15.68;100.00
7824;BME280;3957;48.61947800;9.05303100;2022-08-25T00:13:02;96210.75;;;15.67;100.00
7824;BME280;3957;48.61947800;9.05303100;2022-08-25T00:14:28;96213.69;;;15.65;100.00
7824;BME280;3957;48.61947800;9.05303100;2022-08-25T00:15:49;96212.03;;;15.64;100.00
7824;BME280;3957;48.61947800;9.05303100;2022-08-25T00:17:09;96208.53;;;15.64;100.00
7824;BME280;3957;48.61947800;9.05303100;2022-08-25T00:18:30;96211.22;;;15.64;100.00
7824;BME280;3957;48.61947800;9.05303100;2022-08-25T00:19:51;96213.34;;;15.62;100.00
7824;BME280;3957;48.61947800;9.05303100;2022-08-25T00:21:14;96221.63;;;15.60;100.00
7824;BME280;3957;48.61947800;9.05303100;2022-08-25T00:22:35;96222.94;;;15.58;100.00
7824;BME280;3957;48.61947800;9.05303100;2022-08-25T00:23:56;96216.72;;;15.57;100.00
7824;BME280;3957;48.61947800;9.05303100;2022-08-25T00:25:18;96221.31;;;15.57;100.00
7824;BME280;3957;48.61947800;9.05303100;2022-08-25T00:26:41;96224.66;;;15.52;100.00
7824;BME280;3957;48.61947800;9.05303100;2022-08-25T00:28:03;96223.28;;;15.50;100.00
7824;BME280;3957;48.61947800;9.05303100;2022-08-25T00:29:25;96225.84;;;15.44;100.00
7824;BME280;3957;48.61947800;9.05303100;2022-08-25T00:30:46;96227.50;;;15.45;100.00
7824;BME280;3957;48.61947800;9.05303100;2022-08-25T00:32:09;96230.44;;;15.44;100.00
7824;BME280;3957;48.61947800;9.05303100;2022-08-25T00:33:30;96222.34;;;15.44;100.00
7824;BME280;3957;48.61947800;9.05303100;2022-08-25T00:34:51;96228.53;;;15.44;100.00
7824;BME280;3957;48.61947800;9.05303100;2022-08-25T00:36:13;96224.06;;;15.38;100.00
7824;BME280;3957;48.61947800;9.05303100;2022-08-25T00:37:35;96224.53;;;15.35;100.00
7824;BME280;3957;48.61947800;9.05303100;2022-08-25T00:38:56;96221.25;;;15.33;100.00
7824;BME280;3957;48.61947800;9.05303100;2022-08-25T00:40:17;96225.56;;;15.34;100.00
7824;BME280;3957;48.61947800;9.05303100;2022-08-25T00:41:40;96219.75;;;15.37;100.00
7824;BME280;3957;48.61947800;9.05303100;2022-08-25T00:43:01;96216.44;;;15.35;100.00
7824;BME280;3957;48.61947800;9.05303100;2022-08-25T00:44:26;96225.56;;;15.34;100.00
7824;BME280;3957;48.61947800;9.05303100;2022-08-25T00:45:47;96219.59;;;15.32;100.00
7824;BME280;3957;48.61947800;9.05303100;2022-08-25T00:47:08;96222.53;;;15.30;100.00
7824;BME280;3957;48.61947800;9.05303100;2022-08-25T00:48:29;96219.47;;;15.27;100.00
7824;BME280;3957;48.61947800;9.05303100;2022-08-25T00:49:57;96216.19;;;15.25;100.00
7824;BME280;3957;48.61947800;9.05303100;2022-08-25T00:51:47;96211.63;;;15.25;100.00
7824;BME280;3957;48.61947800;9.05303100;2022-08-25T00:53:09;96220.16;;;15.22;100.00
7824;BME280;3957;48.61947800;9.05303100;2022-08-25T00:54:56;96210.06;;;15.18;100.00
7824;BME280;3957;48.61947800;9.05303100;2022-08-25T00:56:16;96215.69;;;15.16;100.00
7824;BME280;3957;48.61947800;9.05303100;2022-08-25T00:57:44;96205.75;;;15.17;100.00
7824;BME280;3957;48.61947800;9.05303100;2022-08-25T00:59:06;96215.00;;;15.21;100.00
7824;BME280;3957;48.61947800;9.05303100;2022-08-25T01:00:35;96207.59;;;15.16;100.00
7824;BME280;3957;48.61947800;9.05303100;2022-08-25T01:01:57;96210.53;;;15.14;100.00
7824;BME280;3957;48.61947800;9.05303100;2022-08-25T01:03:19;96204.56;;;15.12;100.00
7824;BME280;3957;48.61947800;9.05303100;2022-08-25T01:04:44;96205.03;;;15.09;100.00
7824;BME280;3957;48.61947800;9.05303100;2022-08-25T01:06:06;96203.00;;;15.05;100.00
7824;BME280;3957;48.61947800;9.05303100;2022-08-25T01:07:27;96203.69;;;15.00;100.00
7824;BME280;3957;48.61947800;9.05303100;2022-08-25T01:08:48;96191.50;;;14.98;100.00
7824;BME280;3957;48.61947800;9.05303100;2022-08-25T01:10:09;96191.13;;;14.94;100.00
7824;BME280;3957;48.61947800;9.05303100;2022-08-25T01:11:32;96201.09;;;14.93;100.00
7824;BME280;3957;48.61947800;9.05303100;2022-08-25T01:12:59;96194.75;;;14.88;100.00
7824;BME280;3957;48.61947800;9.05303100;2022-08-25T01:14:22;96196.00;;;14.85;100.00
7824;BME280;3957;48.61947800;9.05303100;2022-08-25T01:15:45;96190.41;;;14.87;100.00
7824;BME280;3957;48.61947800;9.05303100;2022-08-25T01:17:07;96201.16;;;14.87;100.00
7824;BME280;3957;48.61947800;9.05303100;2022-08-25T01:18:41;96202.34;;;14.91;100.00
7824;BME280;3957;48.61947800;9.05303100;2022-08-25T01:20:03;96200.47;;;14.91;100.00
7824;BME280;3957;48.61947800;9.05303100;2022-08-25T01:21:26;96205.88;;;14.91;100.00
7824;BME280;3957;48.61947800;9.05303100;2022-08-25T01:22:48;96200.84;;;14.95;100.00
7824;BME280;3957;48.61947800;9.05303100;2022-08-25T01:24:15;96200.38;;;14.98;100.00
7824;BME280;3957;48.61947800;9.05303100;2022-08-25T01:25:47;96200.16;;;15.00;100.00
7824;BME280;3957;48.61947800;9.05303100;2022-08-25T01:27:09;96201.56;;;15.02;100.00
7824;BME280;3957;48.61947800;9.05303100;2022-08-25T01:28:30;96202.66;;;15.01;100.00
7824;BME280;3957;48.61947800;9.05303100;2022-08-25T01:29:51;96199.94;;;15.01;100.00
7824;BME280;3957;48.61947800;9.05303100;2022-08-25T01:31:12;96195.84;;;14.99;100.00
7824;BME280;3957;48.61947800;9.05303100;2022-08-25T01:32:33;96203.47;;;15.02;100.00
7824;BME280;3957;48.61947800;9.05303100;2022-08-25T01:33:55;96202.84;;;15.00;100.00
7824;BME280;3957;48.61947800;9.05303100;2022-08-25T01:35:16;96196.88;;;14.98;100.00
7824;BME280;3957;48.61947800;9.05303100;2022-08-25T01:36:38;96203.69;;;15.00;100.00
7824;BME280;3957;48.61947800;9.05303100;2022-08-25T01:38:00;96194.56;;;15.01;100.00
7824;BME280;3957;48.61947800;9.05303100;2022-08-25T01:39:23;96201.22;;;14.99;100.00
7824;BME280;3957;48.61947800;9.05303100;2022-08-25T01:40:44;96202.03;;;14.99;100.00
7824;BME280;3957;48.61947800;9.05303100;2022-08-25T01:43:36;96202.97;;;14.93;100.00
7824;BME280;3957;48.61947800;9.05303100;2022-08-25T01:44:58;96199.66;;;14.91;100.00
7824;BME280;3957;48.61947800;9.05303100;2022-08-25T01:46:18;96195.56;;;14.88;100.00
7824;BME280;3957;48.61947800;9.05303100;2022-08-25T01:47:39;96192.84;;;14.88;100.00
7824;BME280;3957;48.61947800;9.05303100;2022-08-25T01:49:00;96193.91;;;14.87;100.00
7824;BME280;3957;48.61947800;9.05303100;2022-08-25T01:50:21;96200.13;;;14.88;100.00
7824;BME280;3957;48.61947800;9.05303100;2022-08-25T01:51:50;96202.81;;;14.88;100.00
7824;BME280;3957;48.61947800;9.05303100;2022-08-25T01:53:22;96196.59;;;14.87;100.00
7824;BME280;3957;48.61947800;9.05303100;2022-08-25T01:54:43;96192.28;;;14.86;100.00
7824;BME280;3957;48.61947800;9.05303100;2022-08-25T01:56:13;96194.97;;;14.86;100.00
7824;BME280;3957;48.61947800;9.05303100;2022-08-25T01:57:34;96200.34;;;14.86;100.00
7824;BME280;3957;48.61947800;9.05303100;2022-08-25T01:58:55;96202.22;;;14.86;100.00
7824;BME280;3957;48.61947800;9.05303100;2022-08-25T02:00:18;96199.53;;;14.86;100.00
7824;BME280;3957;48.61947800;9.05303100;2022-08-25T02:01:39;96198.13;;;14.83;100.00
7824;BME280;3957;48.61947800;9.05303100;2022-08-25T02:03:00;96205.59;;;14.81;100.00
7824;BME280;3957;48.61947800;9.05303100;2022-08-25T02:04:21;96203.72;;;14.82;100.00
7824;BME280;3957;48.61947800;9.05303100;2022-08-25T02:05:42;96197.53;;;14.81;100.00
7824;BME280;3957;48.61947800;9.05303100;2022-08-25T02:07:06;96201.25;;;14.80;100.00
7824;BME280;3957;48.61947800;9.05303100;2022-08-25T02:08:27;96202.31;;;14.79;100.00
7824;BME280;3957;48.61947800;9.05303100;2022-08-25T02:09:48;96207.34;;;14.75;100.00
7824;BME280;3957;48.61947800;9.05303100;2022-08-25T02:11:10;96201.34;;;14.73;100.00
7824;BME280;3957;48.61947800;9.05303100;2022-08-25T02:12:32;96215.25;;;14.70;100.00
7824;BME280;3957;48.61947800;9.05303100;2022-08-25T02:13:54;96208.69;;;14.66;100.00
7824;BME280;3957;48.61947800;9.05303100;2022-08-25T02:15:15;96207.03;;;14.65;100.00
7824;BME280;3957;48.61947800;9.05303100;2022-08-25T02:16:39;96213.72;;;14.62;100.00
7824;BME280;3957;48.61947800;9.05303100;2022-08-25T02:18:00;96209.81;;;14.58;100.00
7824;BME280;3957;48.61947800;9.05303100;2022-08-25T02:19:22;96209.81;;;14.58;100.00
7824;BME280;3957;48.61947800;9.05303100;2022-08-25T02:20:44;96211.19;;;14.61;100.00
7824;BME280;3957;48.61947800;9.05303100;2022-08-25T02:22:05;96210.84;;;14.57;100.00
7824;BME280;3957;48.61947800;9.05303100;2022-08-25T02:23:26;96203.00;;;14.56;100.00
7824;BME280;3957;48.61947800;9.05303100;2022-08-25T02:24:47;96212.56;;;14.52;100.00
7824;BME280;3957;48.61947800;9.05303100;2022-08-25T02:26:09;96201.19;;;14.50;100.00
7824;BME280;3957;48.61947800;9.05303100;2022-08-25T02:27:29;96195.22;;;14.48;100.00
7824;BME280;3957;48.61947800;9.05303100;2022-08-25T02:28:51;96192.16;;;14.44;100.00
7824;BME280;3957;48.61947800;9.05303100;2022-08-25T02:30:14;96192.22;;;14.37;100.00
7824;BME280;3957;48.61947800;9.05303100;2022-08-25T02:31:35;96190.22;;;14.33;100.00
7824;BME280;3957;48.61947800;9.05303100;2022-08-25T02:32:56;96184.69;;;14.27;100.00
7824;BME280;3957;48.61947800;9.05303100;2022-08-25T02:34:17;96196.72;;;14.25;100.00
7824;BME280;3957;48.61947800;9.05303100;2022-08-25T02:35:38;96189.72;;;14.24;100.00
7824;BME280;3957;48.61947800;9.05303100;2022-08-25T02:36:59;96190.97;;;14.21;100.00
7824;BME280;3957;48.61947800;9.05303100;2022-08-25T02:38:19;96188.50;;;14.20;100.00
7824;BME280;3957;48.61947800;9.05303100;2022-08-25T02:39:40;96181.25;;;14.20;100.00
7824;BME280;3957;48.61947800;9.05303100;2022-08-25T02:41:18;96186.00;;;14.18;100.00
7824;BME280;3957;48.61947800;9.05303100;2022-08-25T02:42:39;96176.56;;;14.16;100.00
7824;BME280;3957;48.61947800;9.05303100;2022-08-25T02:44:02;96186.25;;;14.17;100.00
7824;BME280;3957;48.61947800;9.05303100;2022-08-25T02:45:24;96182.97;;;14.15;100.00
7824;BME280;3957;48.61947800;9.05303100;2022-08-25T02:46:44;96189.63;;;14.12;100.00
7824;BME280;3957;48.61947800;9.05303100;2022-08-25T02:48:05;96186.34;;;14.10;100.00
7824;BME280;3957;48.61947800;9.05303100;2022-08-25T02:49:26;96191.91;;;14.08;100.00
7824;BME280;3957;48.61947800;9.05303100;2022-08-25T02:50:49;96194.63;;;14.08;100.00
7824;BME280;3957;48.61947800;9.05303100;2022-08-25T02:52:12;96198.97;;;14.09;100.00
7824;BME280;3957;48.61947800;9.05303100;2022-08-25T02:53:34;96196.25;;;14.09;100.00
7824;BME280;3957;48.61947800;9.05303100;2022-08-25T02:54:55;96192.53;;;14.10;100.00
7824;BME280;3957;48.61947800;9.05303100;2022-08-25T02:56:18;96198.16;;;14.09;100.00
7824;BME280;3957;48.61947800;9.05303100;2022-08-25T02:57:40;96192.75;;;14.09;100.00
7824;BME280;3957;48.61947800;9.05303100;2022-08-25T02:59:02;96199.19;;;14.08;100.00
7824;BME280;3957;48.61947800;9.05303100;2022-08-25T03:00:23;96193.81;;;14.08;100.00
7824;BME280;3957;48.61947800;9.05303100;2022-08-25T03:01:44;96196.50;;;14.08;100.00
7824;BME280;3957;48.61947800;9.05303100;2022-08-25T03:03:05;96196.72;;;14.06;100.00
7824;BME280;3957;48.61947800;9.05303100;2022-08-25T03:04:26;96196.94;;;14.05;100.00
7824;BME280;3957;48.61947800;9.05303100;2022-08-25T03:05:48;96191.78;;;14.03;100.00
7824;BME280;3957;48.61947800;9.05303100;2022-08-25T03:07:10;96187.00;;;14.05;100.00
7824;BME280;3957;48.61947800;9.05303100;2022-08-25T03:08:31;96186.84;;;14.00;100.00
7824;BME280;3957;48.61947800;9.05303100;2022-08-25T03:09:52;96184.38;;;13.99;100.00
7824;BME280;3957;48.61947800;9.05303100;2022-08-25T03:11:12;96181.69;;;13.99;100.00
7824;BME280;3957;48.61947800;9.05303100;2022-08-25T03:12:33;96186.03;;;14.00;100.00
7824;BME280;3957;48.61947800;9.05303100;2022-08-25T03:13:54;96183.94;;;14.02;100.00
7824;BME280;3957;48.61947800;9.05303100;2022-08-25T03:15:16;96182.66;;;14.04;100.00
7824;BME280;3957;48.61947800;9.05303100;2022-08-25T03:16:37;96187.00;;;14.05;100.00
7824;BME280;3957;48.61947800;9.05303100;2022-08-25T03:17:59;96184.06;;;14.07;100.00
7824;BME280;3957;48.61947800;9.05303100;2022-08-25T03:19:21;96186.75;;;14.07;100.00
7824;BME280;3957;48.61947800;9.05303100;2022-08-25T03:20:43;96185.16;;;14.06;100.00
7824;BME280;3957;48.61947800;9.05303100;2022-08-25T03:22:05;96194.03;;;14.06;100.00
7824;BME280;3957;48.61947800;9.05303100;2022-08-25T03:23:26;96190.31;;;14.07;100.00
7824;BME280;3957;48.61947800;9.05303100;2022-08-25T03:24:47;96198.38;;;14.07;100.00
7824;BME280;3957;48.61947800;9.05303100;2022-08-25T03:26:08;96197.53;;;14.07;100.00
7824;BME280;3957;48.61947800;9.05303100;2022-08-25T03:27:47;96194.63;;;14.08;100.00
7824;BME280;3957;48.61947800;9.05303100;2022-08-25T03:29:09;96199.78;;;14.10;100.00
7824;BME280;3957;48.61947800;9.05303100;2022-08-25T03:30:30;96187.75;;;14.12;100.00
7824;BME280;3957;48.61947800;9.05303100;2022-08-25T03:31:51;96190.00;;;14.16;100.00
7824;BME280;3957;48.61947800;9.05303100;2022-08-25T03:33:14;96190.38;;;14.19;100.00
7824;BME280;3957;48.61947800;9.05303100;2022-08-25T03:34:34;96183.72;;;14.22;100.00
7824;BME280;3957;48.61947800;9.05303100;2022-08-25T03:35:56;96185.38;;;14.23;100.00
7824;BME280;3957;48.61947800;9.05303100;2022-08-25T03:37:17;96179.75;;;14.24;100.00
7824;BME280;3957;48.61947800;9.05303100;2022-08-25T03:38:39;96188.28;;;14.21;100.00
7824;BME280;3957;48.61947800;9.05303100;2022-08-25T03:40:02;96179.38;;;14.21;100.00
7824;BME280;3957;48.61947800;9.05303100;2022-08-25T03:41:26;96184.16;;;14.19;100.00
7824;BME280;3957;48.61947800;9.05303100;2022-08-25T03:42:52;96170.47;;;14.20;100.00
7824;BME280;3957;48.61947800;9.05303100;2022-08-25T03:44:17;96178.31;;;14.22;100.00
7824;BME280;3957;48.61947800;9.05303100;2022-08-25T03:45:40;96172.94;;;14.22;100.00
7824;BME280;3957;48.61947800;9.05303100;2022-08-25T03:47:01;96165.09;;;14.20;100.00
7824;BME280;3957;48.61947800;9.05303100;2022-08-25T03:48:22;96170.94;;;14.17;100.00
7824;BME280;3957;48.61947800;9.05303100;2022-08-25T03:49:42;96168.69;;;14.14;100.00
7824;BME280;3957;48.61947800;9.05303100;2022-08-25T03:51:03;96161.50;;;14.08;100.00
7824;BME280;3957;48.61947800;9.05303100;2022-08-25T03:52:25;96168.53;;;14.09;100.00
7824;BME280;3957;48.61947800;9.05303100;2022-08-25T03:53:45;96163.75;;;14.11;100.00
7824;BME280;3957;48.61947800;9.05303100;2022-08-25T03:55:08;96163.31;;;14.14;100.00
7824;BME280;3957;48.61947800;9.05303100;2022-08-25T03:56:30;96161.66;;;14.13;100.00
7824;BME280;3957;48.61947800;9.05303100;2022-08-25T03:57:52;96158.13;;;14.12;100.00
7824;BME280;3957;48.61947800;9.05303100;2022-08-25T03:59:14;96157.09;;;14.14;100.00
7824;BME280;3957;48.61947800;9.05303100;2022-08-25T04:00:35;96160.63;;;14.14;100.00
7824;BME280;3957;48.61947800;9.05303100;2022-08-25T04:01:56;96166.81;;;14.15;100.00
7824;BME280;3957;48.61947800;9.05303100;2022-08-25T04:03:17;96162.88;;;14.17;100.00
7824;BME280;3957;48.61947800;9.05303100;2022-08-25T04:04:38;96155.38;;;14.19;100.00
7824;BME280;3957;48.61947800;9.05303100;2022-08-25T04:06:04;96158.69;;;14.21;100.00
7824;BME280;3957;48.61947800;9.05303100;2022-08-25T04:07:25;96155.75;;;14.23;100.00
7824;BME280;3957;48.61947800;9.05303100;2022-08-25T04:08:46;96161.59;;;14.20;100.00
7824;BME280;3957;48.61947800;9.05303100;2022-08-25T04:10:09;96160.41;;;14.16;100.00
7824;BME280;3957;48.61947800;9.05303100;2022-08-25T04:11:30;96166.22;;;14.12;100.00
7824;BME280;3957;48.61947800;9.05303100;2022-08-25T04:12:50;96166.44;;;14.11;100.00
7824;BME280;3957;48.61947800;9.05303100;2022-08-25T04:14:11;96176.00;;;14.07;100.00
7824;BME280;3957;48.61947800;9.05303100;2022-08-25T04:15:32;96178.56;;;14.02;100.00
7824;BME280;3957;48.61947800;9.05303100;2022-08-25T04:16:53;96179.38;;;14.02;100.00
7824;BME280;3957;48.61947800;9.05303100;2022-08-25T04:18:14;96177.06;;;14.06;100.00
7824;BME280;3957;48.61947800;9.05303100;2022-08-25T04:19:35;96177.88;;;14.06;100.00
7824;BME280;3957;48.61947800;9.05303100;2022-08-25T04:21:04;96181.84;;;14.04;100.00
7824;BME280;3957;48.61947800;9.05303100;2022-08-25T04:22:25;96172.13;;;14.03;100.00
7824;BME280;3957;48.61947800;9.05303100;2022-08-25T04:23:47;96172.13;;;14.03;100.00
7824;BME280;3957;48.61947800;9.05303100;2022-08-25T04:25:10;96166.50;;;14.04;100.00
7824;BME280;3957;48.61947800;9.05303100;2022-08-25T04:26:37;96170.28;;;14.03;100.00
7824;BME280;3957;48.61947800;9.05303100;2022-08-25T04:28:00;96162.84;;;13.99;100.00
7824;BME280;3957;48.61947800;9.05303100;2022-08-25T04:29:22;96164.09;;;13.96;100.00
7824;BME280;3957;48.61947800;9.05303100;2022-08-25T04:30:43;96172.41;;;13.94;100.00
7824;BME280;3957;48.61947800;9.05303100;2022-08-25T04:32:04;96166.66;;;13.91;100.00
7824;BME280;3957;48.61947800;9.05303100;2022-08-25T04:33:25;96173.91;;;13.90;100.00
7824;BME280;3957;48.61947800;9.05303100;2022-08-25T04:34:46;96172.69;;;13.86;100.00
7824;BME280;3957;48.61947800;9.05303100;2022-08-25T04:36:08;96176.69;;;13.84;100.00
7824;BME280;3957;48.61947800;9.05303100;2022-08-25T04:37:31;96178.06;;;13.86;100.00
7824;BME280;3957;48.61947800;9.05303100;2022-08-25T04:38:52;96174.13;;;13.89;100.00
7824;BME280;3957;48.61947800;9.05303100;2022-08-25T04:40:13;96172.28;;;13.89;100.00
7824;BME280;3957;48.61947800;9.05303100;2022-08-25T04:41:34;96173.31;;;13.88;100.00
7824;BME280;3957;48.61947800;9.05303100;2022-08-25T04:42:55;96172.06;;;13.91;100.00
7824;BME280;3957;48.61947800;9.05303100;2022-08-25T04:44:16;96169.72;;;13.94;100.00
7824;BME280;3957;48.61947800;9.05303100;2022-08-25T04:45:38;96164.72;;;13.98;100.00
7824;BME280;3957;48.61947800;9.05303100;2022-08-25T04:47:00;96173.38;;;14.00;100.00
7824;BME280;3957;48.61947800;9.05303100;2022-08-25T04:48:21;96173.19;;;14.02;100.00
7824;BME280;3957;48.61947800;9.05303100;2022-08-25T04:49:42;96177.28;;;14.04;100.00
7824;BME280;3957;48.61947800;9.05303100;2022-08-25T04:51:05;96177.66;;;14.08;100.00
7824;BME280;3957;48.61947800;9.05303100;2022-08-25T04:52:26;96184.47;;;14.10;100.00
7824;BME280;3957;48.61947800;9.05303100;2022-08-25T04:53:47;96182.97;;;14.15;100.00
7824;BME280;3957;48.61947800;9.05303100;2022-08-25T04:55:08;96185.81;;;14.20;100.00
7824;BME280;3957;48.61947800;9.05303100;2022-08-25T04:56:29;96184.31;;;14.24;100.00
7824;BME280;3957;48.61947800;9.05303100;2022-08-25T04:57:50;96183.63;;;14.28;100.00
7824;BME280;3957;48.61947800;9.05303100;2022-08-25T04:59:13;96190.22;;;14.33;100.00
7824;BME280;3957;48.61947800;9.05303100;2022-08-25T05:00:35;96189.31;;;14.39;100.00
7824;BME280;3957;48.61947800;9.05303100;2022-08-25T05:01:57;96186.53;;;14.45;100.00
7824;BME280;3957;48.61947800;9.05303100;2022-08-25T05:03:21;96190.19;;;14.51;100.00
7824;BME280;3957;48.61947800;9.05303100;2022-08-25T05:04:42;96189.75;;;14.54;100.00
7824;BME280;3957;48.61947800;9.05303100;2022-08-25T05:06:03;96187.28;;;14.53;100.00
7824;BME280;3957;48.61947800;9.05303100;2022-08-25T05:07:24;96181.69;;;14.54;100.00
7824;BME280;3957;48.61947800;9.05303100;2022-08-25T05:08:45;96176.88;;;14.56;100.00
7824;BME280;3957;48.61947800;9.05303100;2022-08-25T05:10:06;96172.44;;;14.62;100.00
7824;BME280;3957;48.61947800;9.05303100;2022-08-25T05:11:27;96174.72;;;14.65;100.00
7824;BME280;3957;48.61947800;9.05303100;2022-08-25T05:12:48;96169.31;;;14.65;100.00
7824;BME280;3957;48.61947800;9.05303100;2022-08-25T05:14:08;96172.03;;;14.65;100.00
7824;BME280;3957;48.61947800;9.05303100;2022-08-25T05:15:31;96174.28;;;14.68;100.00
7824;BME280;3957;48.61947800;9.05303100;2022-08-25T05:17:10;96173.00;;;14.71;100.00
7824;BME280;3957;48.61947800;9.05303100;2022-08-25T05:18:32;96168.81;;;14.75;100.00
7824;BME280;3957;48.61947800;9.05303100;2022-08-25T05:19:53;96170.81;;;14.79;100.00
7824;BME280;3957;48.61947800;9.05303100;2022-08-25T05:21:16;96172.81;;;14.84;100.00
7824;BME280;3957;48.61947800;9.05303100;2022-08-25T05:22:37;96165.69;;;14.90;100.00
7824;BME280;3957;48.61947800;9.05303100;2022-08-25T05:24:00;96168.28;;;14.96;100.00
7824;BME280;3957;48.61947800;9.05303100;2022-08-25T05:25:21;96167.38;;;15.03;100.00
7824;BME280;3957;48.61947800;9.05303100;2022-08-25T05:26:41;96161.06;;;15.09;100.00
7824;BME280;3957;48.61947800;9.05303100;2022-08-25T05:28:03;96165.53;;;15.15;100.00
7824;BME280;3957;48.61947800;9.05303100;2022-08-25T05:29:23;96157.69;;;15.25;100.00
7824;BME280;3957;48.61947800;9.05303100;2022-08-25T05:30:45;96157.34;;;15.34;100.00
7824;BME280;3957;48.61947800;9.05303100;2022-08-25T05:32:08;96154.94;;;15.44;100.00
7824;BME280;3957;48.61947800;9.05303100;2022-08-25T05:33:30;96157.84;;;15.54;100.00
7824;BME280;3957;48.61947800;9.05303100;2022-08-25T05:34:50;96157.72;;;15.73;100.00
7824;BME280;3957;48.61947800;9.05303100;2022-08-25T05:36:13;96162.31;;;16.08;100.00
7824;BME280;3957;48.61947800;9.05303100;2022-08-25T05:37:34;96156.81;;;16.55;100.00
7824;BME280;3957;48.61947800;9.05303100;2022-08-25T05:38:54;96157.84;;;17.24;100.00
7824;BME280;3957;48.61947800;9.05303100;2022-08-25T05:40:15;96160.69;;;17.85;100.00
7824;BME280;3957;48.61947800;9.05303100;2022-08-25T05:41:36;96162.59;;;18.68;100.00
7824;BME280;3957;48.61947800;9.05303100;2022-08-25T05:42:57;96165.56;;;19.48;97.63
7824;BME280;3957;48.61947800;9.05303100;2022-08-25T05:44:18;96167.72;;;20.16;90.31
7824;BME280;3957;48.61947800;9.05303100;2022-08-25T05:45:40;96164.78;;;20.86;84.41
7824;BME280;3957;48.61947800;9.05303100;2022-08-25T05:47:01;96167.91;;;21.57;80.79
7824;BME280;3957;48.61947800;9.05303100;2022-08-25T05:48:22;96163.78;;;22.01;77.58
7824;BME280;3957;48.61947800;9.05303100;2022-08-25T05:49:43;96165.06;;;22.50;73.79
7824;BME280;3957;48.61947800;9.05303100;2022-08-25T05:51:06;96164.66;;;22.77;71.23
7824;BME280;3957;48.61947800;9.05303100;2022-08-25T05:52:29;96166.69;;;23.06;68.79
7824;BME280;3957;48.61947800;9.05303100;2022-08-25T05:53:50;96167.38;;;23.32;66.62
7824;BME280;3957;48.61947800;9.05303100;2022-08-25T05:55:11;96163.13;;;23.55;65.32
7824;BME280;3957;48.61947800;9.05303100;2022-08-25T05:56:32;96168.75;;;23.69;65.96
7824;BME280;3957;48.61947800;9.05303100;2022-08-25T05:57:53;96162.44;;;23.74;64.94
7824;BME280;3957;48.61947800;9.05303100;2022-08-25T05:59:13;96161.78;;;23.82;63.85
7824;BME280;3957;48.61947800;9.05303100;2022-08-25T06:00:36;96167.00;;;23.84;63.93
7824;BME280;3957;48.61947800;9.05303100;2022-08-25T06:01:57;96163.94;;;23.90;62.96
7824;BME280;3957;48.61947800;9.05303100;2022-08-25T06:03:36;96171.16;;;23.76;64.27
7824;BME280;3957;48.61947800;9.05303100;2022-08-25T06:04:57;96163.03;;;23.66;65.77
7824;BME280;3957;48.61947800;9.05303100;2022-08-25T06:06:20;96159.31;;;23.51;65.45
7824;BME280;3957;48.61947800;9.05303100;2022-08-25T06:07:41;96161.81;;;22.98;66.02
7824;BME280;3957;48.61947800;9.05303100;2022-08-25T06:09:02;96160.00;;;22.83;68.64
7824;BME280;3957;48.61947800;9.05303100;2022-08-25T06:10:25;96163.09;;;22.61;69.14
7824;BME280;3957;48.61947800;9.05303100;2022-08-25T06:11:46;96165.66;;;22.36;71.29
7824;BME280;3957;48.61947800;9.05303100;2022-08-25T06:13:07;96160.22;;;22.21;70.47
7824;BME280;3957;48.61947800;9.05303100;2022-08-25T06:14:28;96165.66;;;22.11;72.95
7824;BME280;3957;48.61947800;9.05303100;2022-08-25T06:15:49;96169.25;;;21.60;72.48
7824;BME280;3957;48.61947800;9.05303100;2022-08-25T06:17:10;96169.75;;;21.31;76.62
7824;BME280;3957;48.61947800;9.05303100;2022-08-25T06:18:30;96170.88;;;21.30;77.91
7824;BME280;3957;48.61947800;9.05303100;2022-08-25T06:19:52;96166.19;;;21.04;76.72
7824;BME280;3957;48.61947800;9.05303100;2022-08-25T06:21:13;96165.13;;;21.11;78.38
7824;BME280;3957;48.61947800;9.05303100;2022-08-25T06:22:36;96156.97;;;21.16;79.48
7824;BME280;3957;48.61947800;9.05303100;2022-08-25T06:23:57;96157.53;;;21.23;80.57
7824;BME280;3957;48.61947800;9.05303100;2022-08-25T06:25:20;96159.72;;;21.31;79.55
7824;BME280;3957;48.61947800;9.05303100;2022-08-25T06:26:42;96157.00;;;21.36;79.65
7824;BME280;3957;48.61947800;9.05303100;2022-08-25T06:28:03;96164.06;;;21.43;79.30
7824;BME280;3957;48.61947800;9.05303100;2022-08-25T06:29:24;96158.34;;;21.39;79.37
7824;BME280;3957;48.61947800;9.05303100;2022-08-25T06:30:46;96169.25;;;21.49;78.97